createdAt,value
2022-08-09T00:01:10.601Z,1.50
2022-08-09T00:04:00.217Z,1.55
2022-08-09T00:06:27.787Z,1.63
2022-08-09T00:08:57.549Z,1.60
2022-08-09T00:11:27.588Z,1.35
2022-08-09T00:13:55.603Z,1.60
2022-08-09T00:16:26.546Z,1.95
2022-08-09T00:19:09.360Z,1.70
2022-08-09T00:21:55.692Z,1.80
2022-08-09T00:24:24.420Z,1.98
2022-08-09T00:26:51.238Z,1.92
2022-08-09T00:29:39.613Z,1.63
2022-08-09T00:32:06.110Z,2.13
2022-08-09T00:34:33.582Z,2.05
2022-08-09T00:37:00.402Z,2.03
2022-08-09T00:40:14.006Z,2.00
2022-08-09T00:44:10.960Z,1.77
2022-08-09T00:45:03.559Z,2.10
2022-08-09T00:47:42.037Z,2.10
2022-08-09T00:50:14.807Z,2.00
2022-08-09T00:52:42.290Z,1.98
2022-08-09T00:55:10.361Z,2.05
2022-08-09T00:57:59.272Z,2.05
2022-08-09T01:00:27.141Z,2.08
2022-08-09T01:02:57.854Z,1.98
2022-08-09T01:06:17.843Z,1.90
2022-08-09T01:09:36.503Z,1.92
2022-08-09T01:12:12.865Z,2.28
2022-08-09T01:14:52.946Z,1.80
2022-08-09T01:17:25.952Z,2.25
2022-08-09T01:20:14.959Z,2.50
2022-08-09T01:22:51.201Z,2.13
2022-08-09T01:25:42.226Z,2.10
2022-08-09T01:28:16.824Z,2.00
2022-08-09T01:30:51.771Z,2.75
2022-08-09T01:33:25.416Z,2.00
2022-08-09T01:36:13.713Z,2.38
2022-08-09T01:38:46.615Z,2.05
2022-08-09T01:41:16.124Z,2.30
2022-08-09T01:43:51.493Z,2.70
2022-08-09T01:46:41.586Z,1.85
2022-08-09T01:49:17.676Z,2.25
2022-08-09T01:52:07.521Z,2.40
2022-08-09T01:55:02.119Z,2.20
2022-08-09T01:57:40.220Z,2.20
2022-08-09T02:00:19.436Z,2.63
2022-08-09T02:03:02.982Z,2.22
2022-08-09T02:05:38.069Z,2.22
2022-08-09T02:08:38.672Z,2.35
2022-08-09T02:11:17.221Z,2.08
2022-08-09T02:14:06.476Z,2.13
2022-08-09T02:16:59.667Z,2.20
2022-08-09T02:19:22.869Z,2.40
2022-08-09T02:21:55.915Z,2.58
2022-08-09T02:24:35.281Z,2.78
2022-08-09T02:27:05.983Z,2.95
2022-08-09T02:29:39.148Z,2.95
2022-08-09T02:32:10.379Z,2.85
2022-08-09T02:34:41.753Z,3.10
2022-08-09T02:37:24.213Z,2.85
2022-08-09T02:40:12.260Z,3.28
2022-08-09T02:42:42.172Z,3.22
2022-08-09T02:45:13.685Z,3.10
2022-08-09T02:47:57.351Z,2.90
2022-08-09T02:50:51.898Z,3.05
2022-08-09T02:53:26.894Z,3.17
2022-08-09T02:55:57.955Z,3.55
2022-08-09T02:58:36.153Z,3.17
2022-08-09T03:01:07.948Z,3.00
2022-08-09T03:04:16.924Z,3.30
2022-08-09T03:06:27.408Z,3.35
2022-08-09T03:08:55.866Z,3.05
2022-08-09T03:11:29.572Z,3.65
2022-08-09T03:14:12.281Z,3.40
2022-08-09T03:16:45.167Z,3.45
2022-08-09T03:19:52.470Z,3.10
2022-08-09T03:22:12.096Z,3.45
2022-08-09T03:25:06.694Z,3.35
2022-08-09T03:27:44.997Z,3.38
2022-08-09T03:30:13.875Z,3.03
2022-08-09T03:32:41.727Z,3.35
2022-08-09T03:35:24.156Z,3.08
2022-08-09T03:37:59.949Z,3.08
2022-08-09T03:40:31.145Z,2.83
2022-08-09T03:42:58.037Z,3.10
2022-08-09T03:46:04.475Z,3.40
2022-08-09T03:48:11.377Z,3.47
2022-08-09T03:50:45.891Z,3.30
2022-08-09T03:53:16.906Z,3.70
2022-08-09T03:55:48.139Z,3.13
2022-08-09T03:58:16.674Z,3.35
2022-08-09T04:00:45.535Z,3.47
2022-08-09T04:03:24.700Z,3.20
2022-08-09T04:05:59.744Z,3.35
2022-08-09T04:08:31.239Z,3.90
2022-08-09T04:11:01.421Z,4.00
2022-08-09T04:14:37.280Z,3.63
2022-08-09T04:16:20.292Z,3.40
2022-08-09T04:18:50.933Z,4.22
2022-08-09T04:21:18.994Z,3.67
2022-08-09T04:23:53.976Z,3.72
2022-08-09T04:26:23.301Z,3.28
2022-08-09T04:28:50.554Z,2.95
2022-08-09T04:31:17.306Z,3.13
2022-08-09T04:33:51.847Z,3.17
2022-08-09T04:36:24.963Z,3.28
2022-08-09T04:38:53.715Z,3.15
2022-08-09T04:41:23.722Z,3.00
2022-08-09T04:44:05.066Z,3.10
2022-08-09T04:46:37.675Z,3.08
2022-08-09T04:49:30.259Z,2.95
2022-08-09T04:52:09.769Z,3.38
2022-08-09T04:54:36.925Z,2.88
2022-08-09T04:57:04.109Z,2.65
2022-08-09T04:59:31.757Z,2.92
2022-08-09T05:01:58.595Z,2.80
2022-08-09T05:04:31.115Z,2.83
2022-08-09T05:06:58.092Z,3.10
2022-08-09T05:09:24.957Z,2.70
2022-08-09T05:12:09.591Z,2.78
2022-08-09T05:14:37.902Z,2.85
2022-08-09T05:17:15.200Z,3.42
2022-08-09T05:19:56.828Z,3.00
2022-08-09T05:22:33.601Z,3.00
2022-08-09T05:25:10.931Z,2.95
2022-08-09T05:27:45.457Z,2.80
2022-08-09T05:30:15.342Z,2.70
2022-08-09T05:32:45.591Z,2.20
2022-08-09T05:35:18.293Z,2.40
2022-08-09T05:37:50.337Z,2.40
2022-08-09T05:40:18.303Z,2.35
2022-08-09T05:42:45.530Z,2.22
2022-08-09T05:45:14.576Z,2.33
2022-08-09T05:47:45.609Z,2.13
2022-08-09T05:50:35.108Z,2.13
2022-08-09T05:53:06.063Z,1.73
2022-08-09T05:55:38.589Z,2.25
2022-08-09T05:58:07.238Z,2.30
2022-08-09T06:00:34.136Z,2.30
2022-08-09T06:03:03.436Z,2.40
2022-08-09T06:05:57.565Z,2.45
2022-08-09T06:08:24.196Z,2.10
2022-08-09T06:10:56.991Z,1.90
2022-08-09T06:13:25.717Z,2.13
2022-08-09T06:15:55.290Z,2.03
2022-08-09T06:18:25.159Z,2.05
2022-08-09T06:20:57.778Z,1.90
2022-08-09T06:23:57.135Z,2.67
2022-08-09T06:26:22.708Z,1.90
2022-08-09T06:29:00.148Z,2.10
2022-08-09T06:31:31.457Z,2.10
2022-08-09T06:34:07.235Z,2.00
2022-08-09T06:36:34.139Z,1.80
2022-08-09T06:39:02.628Z,1.90
2022-08-09T06:42:01.234Z,1.95
2022-08-09T06:44:24.650Z,2.25
2022-08-09T06:46:55.484Z,2.00
2022-08-09T06:49:44.953Z,2.33
2022-08-09T06:52:10.643Z,2.13
2022-08-09T06:54:38.812Z,2.17
2022-08-09T06:57:08.359Z,2.15
2022-08-09T07:00:55.691Z,2.25
2022-08-09T07:02:21.822Z,1.90
2022-08-09T07:04:56.040Z,1.83
2022-08-09T07:07:59.902Z,2.00
2022-08-09T07:10:22.581Z,1.95
2022-08-09T07:12:57.154Z,1.73
2022-08-09T07:16:34.955Z,1.52
2022-08-09T07:18:11.216Z,1.80
2022-08-09T07:20:43.363Z,1.27
2022-08-09T07:23:18.157Z,1.60
2022-08-09T07:25:46.514Z,1.70
2022-08-09T07:28:19.175Z,1.50
2022-08-09T07:30:54.011Z,1.40
2022-08-09T07:33:22.102Z,1.20
2022-08-09T07:35:54.424Z,1.17
2022-08-09T07:38:21.522Z,1.48
2022-08-09T07:41:10.066Z,1.45
2022-08-09T07:43:40.975Z,1.33
2022-08-09T07:46:08.427Z,1.15
2022-08-09T07:48:39.268Z,1.35
2022-08-09T07:52:03.056Z,1.50
2022-08-09T07:54:05.430Z,1.15
2022-08-09T07:56:36.964Z,1.20
2022-08-09T07:59:15.025Z,1.50
2022-08-09T08:01:53.184Z,1.42
2022-08-09T08:04:20.233Z,1.40
2022-08-09T08:07:00.087Z,1.98
2022-08-09T08:09:42.997Z,1.70
2022-08-09T08:12:27.763Z,1.38
2022-08-09T08:14:55.274Z,1.20
2022-08-09T08:17:35.355Z,1.50
2022-08-09T08:20:13.189Z,1.35
2022-08-09T08:22:41.061Z,1.50
2022-08-09T08:25:13.579Z,1.33
2022-08-09T08:27:43.074Z,1.50
2022-08-09T08:30:11.757Z,1.38
2022-08-09T08:32:52.809Z,1.50
2022-08-09T08:38:02.177Z,1.20
2022-08-09T08:43:03.146Z,1.48
2022-08-09T08:45:51.692Z,1.48
2022-08-09T08:48:22.591Z,1.33
2022-08-09T08:50:57.351Z,1.80
2022-08-09T08:53:32.133Z,1.65
2022-08-09T08:56:06.995Z,1.23
2022-08-09T08:58:36.108Z,1.60
2022-08-09T09:01:08.877Z,1.10
2022-08-09T09:03:37.549Z,1.25
2022-08-09T09:06:07.194Z,1.15
2022-08-09T09:08:41.053Z,1.20
2022-08-09T09:11:17.578Z,1.30
2022-08-09T09:13:56.554Z,1.00
2022-08-09T09:16:32.239Z,1.33
2022-08-09T09:22:04.272Z,1.23
2022-08-09T09:24:35.244Z,1.35
2022-08-09T09:27:06.556Z,1.30
2022-08-09T09:30:11.525Z,1.23
2022-08-09T09:32:34.161Z,1.17
2022-08-09T09:35:07.778Z,1.00
2022-08-09T09:37:36.414Z,1.20
2022-08-09T09:40:08.062Z,1.30
2022-08-09T09:42:36.334Z,1.48
2022-08-09T09:45:08.100Z,1.20
2022-08-09T09:47:47.769Z,1.40
2022-08-09T09:50:17.362Z,1.38
2022-08-09T09:52:56.051Z,1.30
2022-08-09T09:55:32.069Z,1.15
2022-08-09T09:58:18.996Z,1.40
2022-08-09T10:00:59.167Z,1.20
2022-08-09T10:03:56.268Z,0.90
2022-08-09T10:06:26.313Z,1.40
2022-08-09T10:09:00.776Z,1.20
2022-08-09T10:12:01.412Z,1.00
2022-08-09T10:14:33.105Z,1.20
2022-08-09T10:17:40.304Z,1.30
2022-08-09T10:19:58.917Z,1.30
2022-08-09T10:22:34.673Z,1.15
2022-08-09T10:25:11.265Z,1.48
2022-08-09T10:27:56.141Z,1.40
2022-08-09T10:33:29.661Z,1.20
2022-08-09T10:36:02.369Z,1.30
2022-08-09T10:38:54.946Z,1.30
2022-08-09T10:41:18.600Z,1.30
2022-08-09T10:43:58.825Z,1.40
2022-08-09T10:47:20.487Z,1.20
2022-08-09T10:50:27.240Z,1.13
2022-08-09T10:53:10.614Z,1.00
2022-08-09T10:55:58.285Z,1.10
2022-08-09T10:58:35.155Z,1.30
2022-08-09T11:03:03.300Z,1.30
2022-08-09T11:04:30.922Z,1.15
2022-08-09T11:06:59.993Z,1.13
2022-08-09T11:09:46.127Z,1.30
2022-08-09T11:12:18.218Z,1.30
2022-08-09T11:14:57.361Z,0.93
2022-08-09T11:17:26.790Z,1.20
2022-08-09T11:20:10.043Z,1.50
2022-08-09T11:22:45.032Z,1.05
2022-08-09T11:25:19.356Z,1.25
2022-08-09T11:28:04.930Z,1.10
2022-08-09T11:30:47.828Z,1.35
2022-08-09T11:33:17.636Z,1.30
2022-08-09T11:35:49.671Z,0.90
2022-08-09T11:38:41.611Z,0.98
2022-08-09T11:41:14.196Z,1.15
2022-08-09T11:43:48.678Z,1.20
2022-08-09T11:46:26.683Z,1.52
2022-08-09T11:49:00.023Z,1.00
2022-08-09T11:53:03.586Z,1.20
2022-08-09T11:54:27.927Z,1.17
2022-08-09T11:57:47.699Z,1.10
2022-08-09T12:00:27.312Z,0.93
2022-08-09T12:02:57.405Z,1.20
2022-08-09T12:05:37.591Z,1.10
2022-08-09T12:08:12.177Z,0.95
2022-08-09T12:10:53.581Z,1.10
2022-08-09T12:14:07.194Z,0.93
2022-08-09T12:16:42.005Z,1.10
2022-08-09T12:19:12.916Z,1.20
2022-08-09T12:21:50.835Z,1.20
2022-08-09T12:24:25.877Z,1.02
2022-08-09T12:29:09.978Z,1.08
2022-08-09T12:30:01.809Z,1.35
2022-08-09T12:32:44.232Z,1.10
2022-08-09T12:35:16.947Z,1.23
2022-08-09T12:37:50.077Z,1.10
2022-08-09T12:40:18.889Z,0.90
2022-08-09T12:42:50.449Z,1.10
2022-08-09T12:45:33.451Z,1.00
2022-08-09T12:48:03.173Z,1.10
2022-08-09T12:50:30.401Z,1.20
2022-08-09T12:53:17.583Z,1.10
2022-08-09T12:56:16.166Z,1.27
2022-08-09T12:58:30.622Z,1.20
2022-08-09T13:00:58.827Z,1.13
2022-08-09T13:03:58.576Z,1.20
2022-08-09T13:06:39.109Z,1.10
2022-08-09T13:09:12.661Z,1.00
2022-08-09T13:11:45.867Z,1.23
2022-08-09T13:14:40.733Z,1.48
2022-08-09T13:17:21.954Z,1.30
2022-08-09T13:20:13.222Z,1.40
2022-08-09T13:23:05.564Z,1.20
2022-08-09T13:25:54.723Z,1.17
2022-08-09T13:28:34.065Z,1.38
2022-08-09T13:32:13.653Z,1.00
2022-08-09T13:33:57.039Z,1.20
2022-08-09T13:36:41.605Z,0.90
2022-08-09T13:41:17.737Z,1.40
2022-08-09T13:42:12.523Z,1.25
2022-08-09T13:44:42.196Z,1.20
2022-08-09T13:47:31.510Z,1.00
2022-08-09T13:50:12.439Z,1.20
2022-08-09T13:52:41.796Z,1.20
2022-08-09T13:55:13.466Z,1.30
2022-08-09T13:57:47.288Z,1.40
2022-08-09T14:00:23.131Z,1.63
2022-08-09T14:03:03.603Z,1.10
2022-08-09T14:06:00.089Z,1.23
2022-08-09T14:08:30.140Z,1.20
2022-08-09T14:10:57.240Z,1.17
2022-08-09T14:14:15.429Z,1.30
2022-08-09T14:16:14.972Z,1.40
2022-08-09T14:18:45.774Z,1.20
2022-08-09T14:21:18.081Z,1.35
2022-08-09T14:23:54.642Z,1.30
2022-08-09T14:26:25.218Z,1.20
2022-08-09T14:28:52.167Z,1.08
2022-08-09T14:31:18.815Z,1.27
2022-08-09T14:33:52.226Z,1.20
2022-08-09T14:36:21.492Z,1.33
2022-08-09T14:38:52.710Z,1.10
2022-08-09T14:44:07.120Z,1.40
2022-08-09T14:47:00.904Z,1.40
2022-08-09T14:49:24.952Z,1.30
2022-08-09T14:51:51.916Z,1.35
2022-08-09T14:54:28.330Z,1.30
2022-08-09T14:56:58.677Z,1.30
2022-08-09T14:59:27.272Z,1.30
2022-08-09T15:01:55.603Z,1.17
2022-08-09T15:04:23.529Z,1.25
2022-08-09T15:06:51.628Z,1.35
2022-08-09T15:10:03.571Z,1.30
2022-08-09T15:12:08.000Z,1.42
2022-08-09T15:14:38.149Z,1.60
2022-08-09T15:17:09.255Z,1.52
2022-08-09T15:19:37.094Z,1.67
2022-08-09T15:22:25.879Z,1.67
2022-08-09T15:24:53.577Z,1.50
2022-08-09T15:27:21.169Z,1.83
2022-08-09T15:30:58.490Z,1.75
2022-08-09T15:32:35.722Z,1.80
2022-08-09T15:35:18.482Z,1.83
2022-08-09T15:37:57.197Z,2.15
2022-08-09T15:40:37.753Z,1.50
2022-08-09T15:43:13.439Z,1.58
2022-08-09T15:46:08.192Z,1.83
2022-08-09T15:48:31.751Z,1.77
2022-08-09T15:51:02.045Z,1.90
2022-08-09T15:54:04.778Z,1.92
2022-08-09T15:56:29.388Z,1.70
2022-08-09T15:58:58.289Z,1.80
2022-08-09T16:01:25.342Z,1.80
2022-08-09T16:03:52.337Z,2.00
2022-08-09T16:06:32.781Z,1.73
2022-08-09T16:09:05.034Z,2.38
2022-08-09T16:11:33.226Z,1.95
2022-08-09T16:14:03.529Z,1.90
2022-08-09T16:16:34.589Z,1.90
2022-08-09T16:19:05.343Z,2.30
2022-08-09T16:21:35.059Z,1.45
2022-08-09T16:24:04.551Z,1.83
2022-08-09T16:26:35.063Z,1.50
2022-08-09T16:29:10.517Z,1.95
2022-08-09T16:32:18.082Z,1.50
2022-08-09T16:34:27.216Z,1.67
2022-08-09T16:36:56.531Z,1.70
2022-08-09T16:39:25.983Z,1.70
2022-08-09T16:42:02.842Z,1.90
2022-08-09T16:44:31.595Z,1.95
2022-08-09T16:47:04.186Z,1.80
2022-08-09T16:50:29.921Z,1.75
2022-08-09T16:52:32.500Z,1.48
2022-08-09T16:54:59.351Z,2.10
2022-08-09T16:57:26.045Z,1.60
2022-08-09T17:00:14.071Z,1.38
2022-08-09T17:02:42.734Z,1.60
2022-08-09T17:05:14.258Z,1.30
2022-08-09T17:08:42.777Z,1.30
2022-08-09T17:10:33.902Z,1.55
2022-08-09T17:13:01.521Z,1.83
2022-08-09T17:15:58.624Z,1.90
2022-08-09T17:18:15.434Z,1.42
2022-08-09T17:20:49.189Z,1.38
2022-08-09T17:23:20.202Z,1.23
2022-08-09T17:25:52.819Z,1.45
2022-08-09T17:28:20.027Z,1.33
2022-08-09T17:30:47.859Z,1.50
2022-08-09T17:33:22.763Z,1.70
2022-08-09T17:35:50.015Z,1.30
2022-08-09T17:38:32.921Z,1.10
2022-08-09T17:41:03.574Z,1.30
2022-08-09T17:43:34.534Z,1.50
2022-08-09T17:46:06.931Z,1.60
2022-08-09T17:51:19.103Z,1.58
2022-08-09T17:53:53.292Z,1.33
2022-08-09T17:56:35.488Z,1.30
2022-08-09T17:59:09.178Z,1.30
2022-08-09T18:01:57.898Z,1.55
2022-08-09T18:04:26.586Z,1.63
2022-08-09T18:06:54.909Z,1.70
2022-08-09T18:09:25.230Z,1.30
2022-08-09T18:12:18.229Z,1.30
2022-08-09T18:14:53.961Z,1.20
2022-08-09T18:17:27.263Z,1.20
2022-08-09T18:20:54.860Z,1.50
2022-08-09T18:23:05.477Z,1.20
2022-08-09T18:25:50.526Z,1.38
2022-08-09T18:30:38.040Z,1.33
2022-08-09T18:31:08.065Z,1.35
2022-08-09T18:33:34.764Z,1.30
2022-08-09T18:36:02.217Z,1.30
2022-08-09T18:38:28.979Z,1.55
2022-08-09T18:40:55.962Z,1.40
2022-08-09T18:43:24.569Z,1.50
2022-08-09T18:46:47.091Z,1.40
2022-08-09T18:48:38.199Z,1.30
2022-08-09T18:51:08.895Z,1.40
2022-08-09T18:53:56.289Z,1.50
2022-08-09T18:56:27.018Z,1.30
2022-08-09T18:58:55.960Z,1.42
2022-08-09T19:01:23.432Z,1.48
2022-08-09T19:04:01.584Z,1.50
2022-08-09T19:06:38.380Z,1.48
2022-08-09T19:09:07.155Z,1.65
2022-08-09T19:11:37.389Z,1.45
2022-08-09T19:14:05.172Z,1.58
2022-08-09T19:16:35.972Z,2.00
2022-08-09T19:19:21.260Z,1.70
2022-08-09T19:22:04.397Z,1.70
2022-08-09T19:24:39.339Z,1.40
2022-08-09T19:27:20.721Z,1.40
2022-08-09T19:30:22.513Z,1.50
2022-08-09T19:32:36.101Z,1.95
2022-08-09T19:35:04.953Z,1.33
2022-08-09T19:37:40.850Z,1.52
2022-08-09T19:40:19.614Z,1.67
2022-08-09T19:42:47.403Z,1.40
2022-08-09T19:45:16.459Z,1.60
2022-08-09T19:47:44.372Z,1.60
2022-08-09T19:50:49.420Z,1.83
2022-08-09T19:52:59.519Z,1.50
2022-08-09T19:55:52.704Z,1.90
2022-08-09T19:58:17.012Z,1.45
2022-08-09T20:00:45.481Z,1.60
2022-08-09T20:04:26.499Z,1.38
2022-08-09T20:06:00.139Z,1.52
2022-08-09T20:08:34.867Z,1.50
2022-08-09T20:11:04.720Z,1.75
2022-08-09T20:13:36.861Z,1.65
2022-08-09T20:16:35.697Z,1.67
2022-08-09T20:19:42.438Z,2.40
2022-08-09T20:21:55.065Z,1.80
2022-08-09T20:24:31.775Z,1.63
2022-08-09T20:27:02.625Z,1.70
2022-08-09T20:29:37.465Z,1.60
2022-08-09T20:32:29.907Z,1.55
2022-08-09T20:34:56.603Z,1.60
2022-08-09T20:37:23.747Z,1.70
2022-08-09T20:40:16.347Z,1.88
2022-08-09T20:42:37.968Z,1.60
2022-08-09T20:45:58.716Z,1.35
2022-08-09T20:47:52.867Z,1.80
2022-08-09T20:50:47.602Z,1.55
2022-08-09T20:53:34.924Z,1.90
2022-08-09T20:56:00.647Z,2.10
2022-08-09T20:58:32.859Z,1.80
2022-08-09T21:01:33.698Z,1.42
2022-08-09T21:04:08.347Z,1.90
2022-08-09T21:06:35.827Z,1.70
2022-08-09T21:09:02.794Z,1.80
2022-08-09T21:14:17.351Z,1.77
2022-08-09T21:16:45.858Z,1.63
2022-08-09T21:20:18.436Z,1.63
2022-08-09T21:22:00.017Z,1.90
2022-08-09T21:24:28.989Z,1.42
2022-08-09T21:26:59.449Z,1.67
2022-08-09T21:29:26.113Z,1.63
2022-08-09T21:31:53.951Z,1.70
2022-08-09T21:34:29.370Z,1.50
2022-08-09T21:36:56.760Z,1.50
2022-08-09T21:39:27.956Z,1.50
2022-08-09T21:42:06.102Z,1.60
2022-08-09T21:44:38.001Z,1.60
2022-08-09T21:47:07.835Z,1.50
2022-08-09T21:49:39.638Z,1.60
2022-08-09T21:52:16.408Z,1.48
2022-08-09T21:54:50.551Z,1.88
2022-08-09T21:57:37.154Z,1.90
2022-08-09T22:00:25.306Z,1.60
2022-08-09T22:02:58.270Z,2.30
2022-08-09T22:05:37.285Z,2.00
2022-08-09T22:08:13.161Z,1.63
2022-08-09T22:11:49.645Z,1.60
2022-08-09T22:13:34.645Z,1.88
2022-08-09T22:16:07.140Z,1.60
2022-08-09T22:21:01.304Z,1.80
2022-08-09T22:23:35.407Z,1.88
2022-08-09T22:26:06.308Z,1.58
2022-08-09T22:28:43.585Z,1.90
2022-08-09T22:31:20.910Z,1.70
2022-08-09T22:33:49.134Z,1.80
2022-08-09T22:36:21.798Z,2.13
2022-08-09T22:38:49.023Z,1.70
2022-08-09T22:41:15.821Z,1.90
2022-08-09T22:44:01.622Z,1.95
2022-08-09T22:48:12.673Z,1.92
2022-08-09T22:49:16.275Z,1.90
2022-08-09T22:51:49.167Z,1.83
2022-08-09T22:54:21.287Z,2.03
2022-08-09T22:56:54.723Z,2.00
2022-08-09T22:59:57.765Z,1.95
2022-08-09T23:02:11.150Z,1.50
2022-08-09T23:04:43.753Z,1.70
2022-08-09T23:08:21.709Z,2.00
2022-08-09T23:10:26.899Z,1.65
2022-08-09T23:12:53.564Z,2.05
2022-08-09T23:15:20.378Z,1.90
2022-08-09T23:17:47.090Z,1.85
2022-08-09T23:20:13.798Z,1.70
2022-08-09T23:22:40.538Z,1.77
2022-08-09T23:25:08.047Z,1.95
2022-08-09T23:27:34.935Z,1.70
2022-08-09T23:30:01.819Z,1.75
2022-08-09T23:32:28.715Z,1.73
2022-08-09T23:34:55.330Z,1.75
2022-08-09T23:37:22.804Z,1.70
2022-08-09T23:39:52.487Z,2.25
2022-08-09T23:42:19.098Z,1.85
2022-08-09T23:44:45.876Z,1.92
2022-08-09T23:47:12.511Z,1.75
2022-08-09T23:49:39.164Z,1.60
2022-08-09T23:52:05.845Z,1.98
2022-08-09T23:54:32.679Z,1.85
2022-08-09T23:56:59.563Z,1.90
2022-08-09T23:59:46.356Z,1.95
